createdAt,value
2022-12-23T00:02:11.105Z,96415.78
2022-12-23T00:04:40.013Z,96417.53
2022-12-23T00:07:08.734Z,96420.91
2022-12-23T00:09:37.426Z,96417.91
2022-12-23T00:12:20.151Z,96421.44
2022-12-23T00:15:03.872Z,96422.88
2022-12-23T00:17:33.062Z,96419.81
2022-12-23T00:20:01.838Z,96422.81
2022-12-23T00:22:46.033Z,96415.47
2022-12-23T00:25:15.652Z,96422.97
2022-12-23T00:28:02.471Z,96415.72
2022-12-23T00:30:35.269Z,96419.53
2022-12-23T00:33:06.563Z,96413.25
2022-12-23T00:35:35.465Z,96420.66
2022-12-23T00:38:04.206Z,96418.06
2022-12-23T00:40:50.253Z,96415.22
2022-12-23T00:43:21.774Z,96415.09
2022-12-23T00:45:57.244Z,96431.13
2022-12-23T00:48:41.112Z,96428.09
2022-12-23T00:51:10.058Z,96423.50
2022-12-23T00:53:39.052Z,96427.03
2022-12-23T00:56:08.003Z,96436.53
2022-12-23T00:58:36.714Z,96430.00
2022-12-23T01:01:20.948Z,96434.50
2022-12-23T01:04:03.493Z,96438.69
2022-12-23T01:06:32.154Z,96433.56
2022-12-23T01:09:00.904Z,96433.88
2022-12-23T01:11:29.648Z,96439.44
2022-12-23T01:13:59.628Z,96434.19
2022-12-23T01:16:29.769Z,96442.81
2022-12-23T01:18:58.556Z,96446.47
2022-12-23T01:21:27.302Z,96447.50
2022-12-23T01:23:55.971Z,96453.75
2022-12-23T01:26:24.960Z,96444.34
2022-12-23T01:28:55.334Z,96464.19
2022-12-23T01:31:24.272Z,96460.38
2022-12-23T01:33:54.419Z,96463.13
2022-12-23T01:36:23.777Z,96469.88
2022-12-23T01:38:52.549Z,96471.00
2022-12-23T01:41:35.411Z,96474.28
2022-12-23T01:44:04.761Z,96471.69
2022-12-23T01:46:33.490Z,96478.63
2022-12-23T01:49:03.634Z,96481.69
2022-12-23T01:51:32.623Z,96482.97
2022-12-23T01:54:01.843Z,96477.53
2022-12-23T01:56:31.704Z,96480.38
2022-12-23T01:59:02.070Z,96489.63
2022-12-23T02:01:44.665Z,96488.66
2022-12-23T02:04:19.092Z,96489.38
2022-12-23T02:07:01.836Z,96495.88
2022-12-23T02:09:31.606Z,96492.59
2022-12-23T02:12:19.181Z,96493.44
2022-12-23T02:15:10.873Z,96495.75
2022-12-23T02:17:44.011Z,96491.69
2022-12-23T02:20:29.795Z,96496.91
2022-12-23T02:23:10.105Z,96501.69
2022-12-23T02:25:49.549Z,96509.56
2022-12-23T02:28:32.647Z,96512.53
2022-12-23T02:31:03.343Z,96507.88
2022-12-23T02:33:37.741Z,96511.16
2022-12-23T02:36:12.127Z,96513.69
2022-12-23T02:38:44.531Z,96512.00
2022-12-23T02:41:17.285Z,96505.91
2022-12-23T02:43:48.113Z,96509.56
2022-12-23T02:46:22.622Z,96510.63
2022-12-23T02:48:53.380Z,96509.41
2022-12-23T02:51:22.686Z,96524.47
2022-12-23T02:53:52.938Z,96521.59
2022-12-23T02:56:21.943Z,96525.59
2022-12-23T02:58:52.565Z,96529.72
2022-12-23T03:01:24.570Z,96532.22
2022-12-23T03:03:56.378Z,96532.44
2022-12-23T03:06:27.009Z,96532.84
2022-12-23T03:08:57.540Z,96534.59
2022-12-23T03:11:40.396Z,96538.59
2022-12-23T03:14:31.818Z,96544.94
2022-12-23T03:17:05.637Z,96543.53
2022-12-23T03:19:36.884Z,96540.28
2022-12-23T03:22:08.901Z,96548.72
2022-12-23T03:24:41.027Z,96549.41
2022-12-23T03:27:11.760Z,96546.19
2022-12-23T03:29:42.660Z,96554.81
2022-12-23T03:32:13.044Z,96565.56
2022-12-23T03:34:43.545Z,96573.19
2022-12-23T03:37:12.570Z,96572.22
2022-12-23T03:39:43.573Z,96575.78
2022-12-23T03:42:14.703Z,96585.72
2022-12-23T03:45:03.549Z,96573.56
2022-12-23T03:47:36.270Z,96571.13
2022-12-23T03:50:06.548Z,96570.34
2022-12-23T03:52:37.129Z,96571.88
2022-12-23T03:55:07.527Z,96566.44
2022-12-23T03:57:39.469Z,96573.53
2022-12-23T04:00:09.428Z,96562.31
2022-12-23T04:02:42.575Z,96572.06
2022-12-23T04:05:17.910Z,96573.47
2022-12-23T04:07:48.115Z,96576.34
2022-12-23T04:10:16.860Z,96575.06
2022-12-23T04:12:45.704Z,96564.16
2022-12-23T04:15:14.589Z,96579.84
2022-12-23T04:17:44.616Z,96565.09
2022-12-23T04:20:13.657Z,96565.69
2022-12-23T04:22:43.742Z,96572.59
2022-12-23T04:25:12.787Z,96579.84
2022-12-23T04:27:44.030Z,96582.44
2022-12-23T04:30:18.876Z,96585.44
2022-12-23T04:32:49.187Z,96585.75
2022-12-23T04:35:17.937Z,96567.28
2022-12-23T04:37:46.673Z,96575.31
2022-12-23T04:40:15.803Z,96571.59
2022-12-23T04:42:44.564Z,96567.38
2022-12-23T04:45:13.435Z,96570.44
2022-12-23T04:47:42.480Z,96564.94
2022-12-23T04:50:15.201Z,96566.72
2022-12-23T04:52:43.948Z,96581.25
2022-12-23T04:55:12.949Z,96580.31
2022-12-23T04:57:41.667Z,96577.56
2022-12-23T05:00:11.293Z,96576.91
2022-12-23T05:02:40.400Z,96581.09
2022-12-23T05:05:09.618Z,96579.94
2022-12-23T05:07:39.734Z,96577.78
2022-12-23T05:10:10.228Z,96582.91
2022-12-23T05:12:42.150Z,96593.47
2022-12-23T05:15:11.343Z,96591.38
2022-12-23T05:17:40.381Z,96589.41
2022-12-23T05:20:10.858Z,96602.75
2022-12-23T05:22:40.928Z,96607.09
2022-12-23T05:25:10.652Z,96603.59
2022-12-23T05:27:39.342Z,96604.00
2022-12-23T05:30:09.340Z,96601.16
2022-12-23T05:32:39.517Z,96609.75
2022-12-23T05:35:08.980Z,96608.44
2022-12-23T05:37:37.729Z,96597.22
2022-12-23T05:40:09.023Z,96593.25
2022-12-23T05:42:37.822Z,96593.72
2022-12-23T05:45:06.990Z,96594.28
2022-12-23T05:47:35.685Z,96589.06
2022-12-23T05:50:04.737Z,96595.00
2022-12-23T05:52:33.454Z,96603.09
2022-12-23T05:55:02.169Z,96599.97
2022-12-23T05:57:32.861Z,96594.81
2022-12-23T06:00:01.531Z,96605.25
2022-12-23T06:02:30.387Z,96608.09
2022-12-23T06:04:59.517Z,96625.22
2022-12-23T06:07:28.461Z,96624.09
2022-12-23T06:09:57.193Z,96629.31
2022-12-23T06:12:25.898Z,96627.19
2022-12-23T06:14:55.941Z,96637.97
2022-12-23T06:17:24.700Z,96644.16
2022-12-23T06:19:53.413Z,96648.34
2022-12-23T06:22:23.751Z,96651.38
2022-12-23T06:24:52.465Z,96644.78
2022-12-23T06:27:21.189Z,96644.75
2022-12-23T06:29:50.027Z,96654.81
2022-12-23T06:32:20.373Z,96649.91
2022-12-23T06:34:53.507Z,96645.97
2022-12-23T06:37:22.273Z,96653.13
2022-12-23T06:39:50.898Z,96637.63
2022-12-23T06:42:19.574Z,96651.03
2022-12-23T06:44:48.261Z,96646.50
2022-12-23T06:47:17.222Z,96645.22
2022-12-23T06:49:47.265Z,96641.50
2022-12-23T06:52:15.961Z,96645.50
2022-12-23T06:54:44.677Z,96641.88
2022-12-23T06:57:13.903Z,96641.16
2022-12-23T06:59:42.562Z,96634.38
2022-12-23T07:02:12.229Z,96626.09
2022-12-23T07:04:41.366Z,96626.31
2022-12-23T07:07:11.439Z,96626.28
2022-12-23T07:09:40.113Z,96629.19
2022-12-23T07:12:08.896Z,96640.19
2022-12-23T07:14:37.594Z,96637.03
2022-12-23T07:17:24.064Z,96635.63
2022-12-23T07:19:52.725Z,96639.78
2022-12-23T07:22:22.784Z,96638.06
2022-12-23T07:24:51.439Z,96644.25
2022-12-23T07:27:20.127Z,96654.97
2022-12-23T07:29:48.851Z,96668.50
2022-12-23T07:32:17.567Z,96682.13
2022-12-23T07:34:46.241Z,96680.16
2022-12-23T07:37:15.357Z,96696.88
2022-12-23T07:39:45.512Z,96710.44
2022-12-23T07:42:43.553Z,96709.84
2022-12-23T07:45:03.248Z,96714.94
2022-12-23T07:47:32.029Z,96720.66
2022-12-23T07:50:00.803Z,96719.38
2022-12-23T07:52:30.572Z,96708.84
2022-12-23T07:55:01.062Z,96711.53
2022-12-23T07:57:30.524Z,96705.09
2022-12-23T07:59:59.265Z,96711.38
2022-12-23T08:02:28.168Z,96708.97
2022-12-23T08:04:57.492Z,96709.13
2022-12-23T08:07:26.202Z,96715.00
2022-12-23T08:09:54.882Z,96690.94
2022-12-23T08:12:25.062Z,96691.38
2022-12-23T08:14:54.091Z,96683.06
2022-12-23T08:17:23.556Z,96688.13
2022-12-23T08:19:52.958Z,96687.16
2022-12-23T08:22:21.687Z,96682.25
2022-12-23T08:24:50.455Z,96684.44
2022-12-23T08:27:19.489Z,96676.69
2022-12-23T08:29:49.612Z,96685.50
2022-12-23T08:32:21.224Z,96696.44
2022-12-23T08:34:49.923Z,96682.09
2022-12-23T08:37:18.641Z,96679.53
2022-12-23T08:39:47.481Z,96675.44
2022-12-23T08:42:17.073Z,96669.97
2022-12-23T08:44:46.168Z,96664.78
2022-12-23T08:47:16.301Z,96664.59
2022-12-23T08:49:45.002Z,96665.56
2022-12-23T08:52:13.986Z,96669.78
2022-12-23T08:54:42.786Z,96659.31
2022-12-23T08:57:11.524Z,96655.22
2022-12-23T08:59:40.314Z,96654.84
2022-12-23T09:02:10.454Z,96656.47
2022-12-23T09:04:40.712Z,96660.44
2022-12-23T09:07:09.498Z,96672.47
2022-12-23T09:09:39.329Z,96671.75
2022-12-23T09:12:08.224Z,96663.19
2022-12-23T09:14:37.010Z,96671.91
2022-12-23T09:17:05.822Z,96660.69
2022-12-23T09:19:34.887Z,96657.78
2022-12-23T09:22:04.992Z,96671.50
2022-12-23T09:24:34.125Z,96673.00
2022-12-23T09:27:03.319Z,96680.00
2022-12-23T09:29:32.093Z,96681.69
2022-12-23T09:32:00.826Z,96677.91
2022-12-23T09:34:29.584Z,96674.84
2022-12-23T09:36:58.348Z,96663.88
2022-12-23T09:39:28.453Z,96661.34
2022-12-23T09:42:04.182Z,96665.47
2022-12-23T09:44:43.576Z,96667.97
2022-12-23T09:47:15.857Z,96657.34
2022-12-23T09:49:47.773Z,96654.06
2022-12-23T09:52:23.156Z,96652.00
2022-12-23T09:54:54.662Z,96645.25
2022-12-23T09:57:25.201Z,96632.25
2022-12-23T10:00:01.735Z,96634.22
2022-12-23T10:02:35.244Z,96623.97
2022-12-23T10:05:07.355Z,96626.44
2022-12-23T10:07:37.662Z,96619.16
2022-12-23T10:10:13.728Z,96620.41
2022-12-23T10:12:43.738Z,96623.47
2022-12-23T10:15:21.131Z,96610.06
2022-12-23T10:17:51.518Z,96607.03
2022-12-23T10:20:24.366Z,96604.13
2022-12-23T10:22:53.113Z,96596.00
2022-12-23T10:25:24.588Z,96586.72
2022-12-23T10:27:54.683Z,96593.13
2022-12-23T10:30:53.951Z,96581.03
2022-12-23T10:33:19.365Z,96574.94
2022-12-23T10:35:50.866Z,96564.75
2022-12-23T10:38:28.102Z,96559.97
2022-12-23T10:41:08.936Z,96552.44
2022-12-23T10:43:43.852Z,96547.28
2022-12-23T10:46:18.964Z,96545.34
2022-12-23T10:48:54.132Z,96539.25
2022-12-23T10:51:24.673Z,96533.13
2022-12-23T10:53:55.214Z,96529.19
2022-12-23T10:56:25.455Z,96525.50
2022-12-23T10:58:56.118Z,96533.06
2022-12-23T11:01:27.308Z,96516.19
2022-12-23T11:03:59.795Z,96520.69
2022-12-23T11:06:34.854Z,96507.06
2022-12-23T11:09:24.435Z,96506.91
2022-12-23T11:11:57.001Z,96509.22
2022-12-23T11:14:32.405Z,96505.06
2022-12-23T11:17:02.395Z,96514.56
2022-12-23T11:19:31.215Z,96509.91
2022-12-23T11:22:02.140Z,96500.97
2022-12-23T11:24:38.085Z,96496.28
2022-12-23T11:27:13.363Z,96500.78
2022-12-23T11:29:47.486Z,96501.34
2022-12-23T11:32:18.718Z,96487.50
2022-12-23T11:34:48.224Z,96488.34
2022-12-23T11:37:28.106Z,96492.69
2022-12-23T11:40:02.280Z,96483.47
2022-12-23T11:42:32.623Z,96484.22
2022-12-23T11:45:02.566Z,96477.56
2022-12-23T11:47:37.740Z,96466.03
2022-12-23T11:50:29.031Z,96461.84
2022-12-23T11:53:02.277Z,96465.38
2022-12-23T11:55:40.193Z,96462.91
2022-12-23T11:58:20.497Z,96449.31
2022-12-23T12:00:56.137Z,96450.13
2022-12-23T12:03:27.463Z,96439.84
2022-12-23T12:05:58.573Z,96436.94
2022-12-23T12:08:38.352Z,96424.09
2022-12-23T12:11:09.656Z,96417.69
2022-12-23T12:13:40.964Z,96410.13
2022-12-23T12:16:22.791Z,96396.13
2022-12-23T12:18:55.921Z,96388.81
2022-12-23T12:21:26.840Z,96383.00
2022-12-23T12:24:17.090Z,96366.25
2022-12-23T12:26:47.693Z,96377.44
2022-12-23T12:29:24.543Z,96348.56
2022-12-23T12:31:54.738Z,96341.66
2022-12-23T12:34:34.117Z,96335.81
2022-12-23T12:37:08.016Z,96335.72
2022-12-23T12:39:38.921Z,96325.66
2022-12-23T12:42:30.442Z,96328.34
2022-12-23T12:45:22.991Z,96328.44
2022-12-23T12:48:00.140Z,96339.44
2022-12-23T12:50:35.659Z,96339.03
2022-12-23T12:53:07.818Z,96331.84
2022-12-23T12:55:38.086Z,96331.53
2022-12-23T12:58:06.967Z,96316.69
2022-12-23T13:00:52.745Z,96320.00
2022-12-23T13:03:29.576Z,96315.94
2022-12-23T13:06:06.867Z,96319.66
2022-12-23T13:08:45.241Z,96308.69
2022-12-23T13:11:35.869Z,96313.41
2022-12-23T13:14:16.472Z,96299.75
2022-12-23T13:16:49.621Z,96299.13
2022-12-23T13:19:23.765Z,96290.72
2022-12-23T13:21:55.969Z,96286.00
2022-12-23T13:24:26.845Z,96274.69
2022-12-23T13:27:02.095Z,96270.03
2022-12-23T13:29:47.347Z,96256.63
2022-12-23T13:32:26.692Z,96255.56
2022-12-23T13:34:59.654Z,96257.09
2022-12-23T13:37:34.335Z,96258.47
2022-12-23T13:40:09.843Z,96253.34
2022-12-23T13:42:42.074Z,96232.38
2022-12-23T13:45:15.054Z,96212.78
2022-12-23T13:47:50.683Z,96204.34
2022-12-23T13:50:21.892Z,96219.28
2022-12-23T13:53:03.330Z,96194.25
2022-12-23T13:55:50.427Z,96207.66
2022-12-23T13:58:20.061Z,96199.03
2022-12-23T14:00:49.254Z,96175.06
2022-12-23T14:03:21.949Z,96168.66
2022-12-23T14:05:51.806Z,96146.75
2022-12-23T14:08:24.467Z,96144.13
2022-12-23T14:10:55.148Z,96120.75
2022-12-23T14:13:25.975Z,96144.50
2022-12-23T14:16:05.747Z,96138.63
2022-12-23T14:18:45.900Z,96145.63
2022-12-23T14:21:18.634Z,96146.22
2022-12-23T14:24:03.847Z,96141.19
2022-12-23T14:26:46.139Z,96122.78
2022-12-23T14:29:26.888Z,96133.13
2022-12-23T14:31:57.355Z,96115.47
2022-12-23T14:34:31.238Z,96117.69
2022-12-23T14:37:16.887Z,96114.63
2022-12-23T14:39:46.868Z,96114.44
2022-12-23T14:42:16.884Z,96122.09
2022-12-23T14:44:50.285Z,96120.34
2022-12-23T14:47:33.773Z,96113.47
2022-12-23T14:50:31.849Z,96122.72
2022-12-23T14:53:03.146Z,96118.41
2022-12-23T14:55:43.124Z,96142.19
2022-12-23T14:58:53.769Z,96134.34
2022-12-23T15:01:28.208Z,96147.31
2022-12-23T15:04:01.241Z,96146.34
2022-12-23T15:06:34.315Z,96130.84
2022-12-23T15:09:05.510Z,96117.47
2022-12-23T15:11:35.859Z,96117.16
2022-12-23T15:14:06.324Z,96120.06
2022-12-23T15:16:36.140Z,96124.41
2022-12-23T15:19:17.622Z,96131.59
2022-12-23T15:21:50.362Z,96129.59
2022-12-23T15:24:26.061Z,96127.63
2022-12-23T15:27:25.429Z,96120.94
2022-12-23T15:29:46.824Z,96126.44
2022-12-23T15:32:15.592Z,96129.50
2022-12-23T15:34:44.678Z,96130.19
2022-12-23T15:37:13.840Z,96145.16
2022-12-23T15:39:45.326Z,96157.19
2022-12-23T15:42:23.882Z,96160.22
2022-12-23T15:44:52.765Z,96150.88
2022-12-23T15:47:26.130Z,96158.91
2022-12-23T15:49:54.956Z,96145.19
2022-12-23T15:52:23.694Z,96143.53
2022-12-23T15:55:00.181Z,96146.88
2022-12-23T15:57:50.570Z,96142.88
2022-12-23T16:00:21.512Z,96150.56
2022-12-23T16:03:03.278Z,96159.13
2022-12-23T16:05:35.405Z,96166.16
2022-12-23T16:08:12.621Z,96154.75
2022-12-23T16:10:43.130Z,96170.19
2022-12-23T16:13:17.759Z,96160.78
2022-12-23T16:18:34.648Z,96160.47
2022-12-23T16:21:04.084Z,96165.50
2022-12-23T16:23:33.721Z,96167.50
2022-12-23T16:26:08.846Z,96174.34
2022-12-23T16:28:39.904Z,96166.97
2022-12-23T16:31:09.001Z,96177.69
2022-12-23T16:33:40.050Z,96187.22
2022-12-23T16:36:20.721Z,96178.03
2022-12-23T16:38:54.169Z,96174.19
2022-12-23T16:42:16.031Z,96171.66
2022-12-23T16:44:46.333Z,96176.88
2022-12-23T16:47:18.272Z,96171.31
2022-12-23T16:49:48.504Z,96172.66
2022-12-23T16:52:17.471Z,96172.34
2022-12-23T16:54:47.758Z,96176.03
2022-12-23T17:00:44.992Z,96189.59
2022-12-23T17:03:16.849Z,96212.53
2022-12-23T17:05:46.663Z,96200.63
2022-12-23T17:08:15.870Z,96216.56
2022-12-23T17:10:45.185Z,96215.19
2022-12-23T17:13:17.982Z,96225.75
2022-12-23T17:15:47.216Z,96230.28
2022-12-23T17:18:18.279Z,96222.59
2022-12-23T17:20:47.515Z,96232.47
2022-12-23T17:23:27.342Z,96225.28
2022-12-23T17:25:56.215Z,96250.56
2022-12-23T17:28:26.635Z,96235.47
2022-12-23T17:30:56.583Z,96249.56
2022-12-23T17:33:27.242Z,96245.03
2022-12-23T17:35:57.526Z,96244.34
2022-12-23T17:38:29.597Z,96250.56
2022-12-23T17:41:00.278Z,96265.81
2022-12-23T17:43:31.493Z,96267.31
2022-12-23T17:46:01.235Z,96274.34
2022-12-23T17:48:32.014Z,96270.47
2022-12-23T17:51:01.301Z,96300.13
2022-12-23T17:53:30.391Z,96283.41
2022-12-23T17:55:59.235Z,96268.97
2022-12-23T17:58:29.718Z,96278.50
2022-12-23T18:00:58.961Z,96287.56
2022-12-23T18:03:27.986Z,96284.53
2022-12-23T18:06:01.522Z,96297.94
2022-12-23T18:08:31.721Z,96296.25
2022-12-23T18:11:01.147Z,96297.25
2022-12-23T18:13:31.738Z,96296.59
2022-12-23T18:16:19.669Z,96302.44
2022-12-23T18:18:49.052Z,96301.78
2022-12-23T18:21:36.533Z,96315.16
2022-12-23T18:24:07.060Z,96310.66
2022-12-23T18:26:36.511Z,96304.59
2022-12-23T18:29:07.689Z,96313.19
2022-12-23T18:31:37.728Z,96314.19
2022-12-23T18:34:07.523Z,96304.94
2022-12-23T18:36:37.199Z,96306.59
2022-12-23T18:39:06.391Z,96317.97
2022-12-23T18:41:35.373Z,96318.97
2022-12-23T18:44:06.394Z,96321.16
2022-12-23T18:46:35.631Z,96311.91
2022-12-23T18:49:05.923Z,96321.16
2022-12-23T18:51:36.517Z,96331.19
2022-12-23T18:54:05.762Z,96318.13
2022-12-23T18:56:41.132Z,96328.16
2022-12-23T18:59:22.848Z,96338.72
2022-12-23T19:01:59.117Z,96327.97
2022-12-23T19:04:28.608Z,96331.66
2022-12-23T19:06:58.599Z,96329.22
2022-12-23T19:09:27.426Z,96330.81
2022-12-23T19:11:57.023Z,96325.97
2022-12-23T19:14:27.542Z,96337.69
2022-12-23T19:17:00.165Z,96347.25
2022-12-23T19:19:28.866Z,96348.56
2022-12-23T19:21:57.947Z,96353.06
2022-12-23T19:24:26.801Z,96344.56
2022-12-23T19:26:56.391Z,96353.44
2022-12-23T19:29:43.228Z,96344.44
2022-12-23T19:32:13.387Z,96353.88
2022-12-23T19:34:42.175Z,96355.56
2022-12-23T19:37:10.922Z,96357.75
2022-12-23T19:39:41.192Z,96354.56
2022-12-23T19:42:10.518Z,96359.03
2022-12-23T19:44:44.639Z,96369.09
2022-12-23T19:47:16.496Z,96367.41
2022-12-23T19:49:45.239Z,96372.38
2022-12-23T19:52:13.940Z,96384.81
2022-12-23T19:54:43.221Z,96383.78
2022-12-23T19:57:11.985Z,96393.94
2022-12-23T19:59:40.657Z,96391.50
2022-12-23T20:02:12.143Z,96396.78
2022-12-23T20:04:42.817Z,96391.13
2022-12-23T20:07:11.646Z,96405.66
2022-12-23T20:09:40.527Z,96410.69
2022-12-23T20:12:09.768Z,96403.66
2022-12-23T20:14:38.502Z,96411.00
2022-12-23T20:17:07.349Z,96423.28
2022-12-23T20:19:43.752Z,96417.19
2022-12-23T20:22:16.119Z,96422.03
2022-12-23T20:24:45.070Z,96424.28
2022-12-23T20:27:16.135Z,96423.59
2022-12-23T20:29:45.767Z,96419.88
2022-12-23T20:32:16.234Z,96426.28
2022-12-23T20:34:51.386Z,96436.41
2022-12-23T20:37:24.680Z,96433.00
2022-12-23T20:39:54.209Z,96449.53
2022-12-23T20:42:27.578Z,96438.78
2022-12-23T20:44:56.999Z,96442.59
2022-12-23T20:47:27.837Z,96441.50
2022-12-23T20:49:56.905Z,96446.09
2022-12-23T20:52:28.160Z,96457.97
2022-12-23T20:54:57.561Z,96461.03
2022-12-23T20:57:27.150Z,96452.00
2022-12-23T20:59:56.786Z,96466.38
2022-12-23T21:02:27.271Z,96461.56
2022-12-23T21:04:56.673Z,96481.94
2022-12-23T21:07:29.548Z,96485.47
2022-12-23T21:09:59.119Z,96481.06
2022-12-23T21:12:28.901Z,96485.06
2022-12-23T21:14:57.915Z,96495.22
2022-12-23T21:17:26.918Z,96500.72
2022-12-23T21:19:58.185Z,96504.78
2022-12-23T21:22:28.654Z,96494.44
2022-12-23T21:24:57.436Z,96494.81
2022-12-23T21:27:27.032Z,96502.00
2022-12-23T21:29:55.786Z,96497.66
2022-12-23T21:32:25.469Z,96499.50
2022-12-23T21:34:58.791Z,96511.63
2022-12-23T21:37:30.055Z,96505.09
2022-12-23T21:39:58.928Z,96506.34
2022-12-23T21:42:28.294Z,96504.41
2022-12-23T21:44:57.672Z,96519.09
2022-12-23T21:47:26.423Z,96516.56
2022-12-23T21:49:55.176Z,96511.44
2022-12-23T21:52:24.211Z,96520.09
2022-12-23T21:54:54.555Z,96521.31
2022-12-23T21:57:23.270Z,96520.72
2022-12-23T21:59:52.033Z,96527.75
2022-12-23T22:02:21.076Z,96540.47
2022-12-23T22:04:49.951Z,96542.72
2022-12-23T22:07:18.736Z,96550.25
2022-12-23T22:09:47.503Z,96555.19
2022-12-23T22:12:18.171Z,96572.84
2022-12-23T22:14:47.582Z,96555.69
2022-12-23T22:17:16.358Z,96561.47
2022-12-23T22:19:46.963Z,96563.00
2022-12-23T22:22:18.404Z,96562.63
2022-12-23T22:24:48.731Z,96558.34
2022-12-23T22:27:20.073Z,96559.63
2022-12-23T22:29:48.785Z,96576.59
2022-12-23T22:32:17.856Z,96570.81
2022-12-23T22:34:49.590Z,96581.66
2022-12-23T22:37:18.926Z,96582.28
2022-12-23T22:39:48.076Z,96576.16
2022-12-23T22:42:18.455Z,96581.03
2022-12-23T22:44:47.218Z,96595.72
2022-12-23T22:47:17.206Z,96594.88
2022-12-23T22:49:45.979Z,96594.66
2022-12-23T22:52:14.985Z,96598.47
2022-12-23T22:54:44.014Z,96611.06
2022-12-23T22:57:15.187Z,96609.81
2022-12-23T22:59:45.605Z,96615.72
2022-12-23T23:02:14.456Z,96624.69
2022-12-23T23:04:43.210Z,96624.44
2022-12-23T23:07:12.051Z,96628.13
2022-12-23T23:09:40.826Z,96631.19
2022-12-23T23:12:09.668Z,96622.06
2022-12-23T23:14:52.530Z,96651.00
2022-12-23T23:17:24.070Z,96647.69
2022-12-23T23:19:52.837Z,96647.81
2022-12-23T23:22:22.432Z,96645.84
2022-12-23T23:24:51.077Z,96656.16
2022-12-23T23:27:19.856Z,96646.53
2022-12-23T23:29:48.865Z,96635.84
2022-12-23T23:32:20.357Z,96667.00
2022-12-23T23:34:51.113Z,96668.84
2022-12-23T23:37:19.993Z,96662.13
2022-12-23T23:39:48.858Z,96651.25
2022-12-23T23:42:18.129Z,96660.22
2022-12-23T23:44:46.919Z,96646.38
2022-12-23T23:47:16.652Z,96654.81
2022-12-23T23:49:45.365Z,96662.94
2022-12-23T23:52:15.476Z,96656.69
2022-12-23T23:54:44.978Z,96658.03
2022-12-23T23:57:16.994Z,96653.31
2022-12-23T23:59:45.696Z,96671.50
